sensor_id;sensor_type;location;lat;lon;timestamp;P1;durP1;ratioP1;P2;durP2;ratioP2
64075;SDS011;50327;51.328;12.324;2023-02-28T00:00:17;7.93;;;2.70;;
64075;SDS011;50327;51.328;12.324;2023-02-28T00:02:44;5.65;;;2.17;;
64075;SDS011;50327;51.328;12.324;2023-02-28T00:05:11;4.93;;;2.22;;
64075;SDS011;50327;51.328;12.324;2023-02-28T00:07:41;8.00;;;2.17;;
64075;SDS011;50327;51.328;12.324;2023-02-28T00:10:08;4.45;;;2.03;;
64075;SDS011;50327;51.328;12.324;2023-02-28T00:12:38;5.15;;;2.25;;
64075;SDS011;50327;51.328;12.324;2023-02-28T00:15:07;4.30;;;1.60;;
64075;SDS011;50327;51.328;12.324;2023-02-28T00:17:34;3.95;;;1.85;;
64075;SDS011;50327;51.328;12.324;2023-02-28T00:20:00;7.32;;;1.92;;
64075;SDS011;50327;51.328;12.324;2023-02-28T00:22:37;3.20;;;1.77;;
64075;SDS011;50327;51.328;12.324;2023-02-28T00:25:04;6.80;;;2.08;;
64075;SDS011;50327;51.328;12.324;2023-02-28T00:27:30;5.05;;;2.17;;
64075;SDS011;50327;51.328;12.324;2023-02-28T00:29:55;6.03;;;2.05;;
64075;SDS011;50327;51.328;12.324;2023-02-28T00:32:21;7.47;;;2.47;;
64075;SDS011;50327;51.328;12.324;2023-02-28T00:34:46;3.92;;;1.88;;
64075;SDS011;50327;51.328;12.324;2023-02-28T00:37:14;4.13;;;1.65;;
64075;SDS011;50327;51.328;12.324;2023-02-28T00:39:40;2.90;;;1.67;;
64075;SDS011;50327;51.328;12.324;2023-02-28T00:42:05;6.07;;;1.88;;
64075;SDS011;50327;51.328;12.324;2023-02-28T00:44:32;3.85;;;1.80;;
64075;SDS011;50327;51.328;12.324;2023-02-28T00:46:57;10.57;;;2.10;;
64075;SDS011;50327;51.328;12.324;2023-02-28T00:49:24;6.53;;;2.05;;
64075;SDS011;50327;51.328;12.324;2023-02-28T00:51:50;5.13;;;2.42;;
64075;SDS011;50327;51.328;12.324;2023-02-28T00:54:15;8.38;;;2.67;;
64075;SDS011;50327;51.328;12.324;2023-02-28T00:56:41;4.22;;;1.70;;
64075;SDS011;50327;51.328;12.324;2023-02-28T00:59:07;4.32;;;1.65;;
64075;SDS011;50327;51.328;12.324;2023-02-28T01:01:33;3.28;;;1.77;;
64075;SDS011;50327;51.328;12.324;2023-02-28T01:03:58;6.53;;;2.90;;
64075;SDS011;50327;51.328;12.324;2023-02-28T01:06:23;7.30;;;2.20;;
64075;SDS011;50327;51.328;12.324;2023-02-28T01:08:49;5.57;;;1.90;;
64075;SDS011;50327;51.328;12.324;2023-02-28T01:11:15;7.03;;;2.47;;
64075;SDS011;50327;51.328;12.324;2023-02-28T01:13:42;11.15;;;2.45;;
64075;SDS011;50327;51.328;12.324;2023-02-28T01:16:08;3.70;;;1.65;;
64075;SDS011;50327;51.328;12.324;2023-02-28T01:18:33;8.02;;;2.55;;
64075;SDS011;50327;51.328;12.324;2023-02-28T01:21:02;6.05;;;2.05;;
64075;SDS011;50327;51.328;12.324;2023-02-28T01:23:31;5.57;;;2.05;;
64075;SDS011;50327;51.328;12.324;2023-02-28T01:25:57;6.60;;;2.28;;
64075;SDS011;50327;51.328;12.324;2023-02-28T01:28:29;5.00;;;1.85;;
64075;SDS011;50327;51.328;12.324;2023-02-28T01:30:54;6.72;;;2.60;;
64075;SDS011;50327;51.328;12.324;2023-02-28T01:33:20;5.72;;;2.42;;
64075;SDS011;50327;51.328;12.324;2023-02-28T01:35:45;5.40;;;2.15;;
64075;SDS011;50327;51.328;12.324;2023-02-28T01:38:11;6.00;;;2.10;;
64075;SDS011;50327;51.328;12.324;2023-02-28T01:40:36;10.75;;;2.25;;
64075;SDS011;50327;51.328;12.324;2023-02-28T01:43:01;5.65;;;2.20;;
64075;SDS011;50327;51.328;12.324;2023-02-28T01:45:28;6.82;;;2.88;;
64075;SDS011;50327;51.328;12.324;2023-02-28T01:47:57;6.28;;;2.30;;
64075;SDS011;50327;51.328;12.324;2023-02-28T01:50:27;5.47;;;2.47;;
64075;SDS011;50327;51.328;12.324;2023-02-28T01:52:57;11.80;;;2.90;;
64075;SDS011;50327;51.328;12.324;2023-02-28T01:55:26;4.90;;;2.20;;
64075;SDS011;50327;51.328;12.324;2023-02-28T01:57:54;4.65;;;2.15;;
64075;SDS011;50327;51.328;12.324;2023-02-28T02:00:25;7.63;;;2.13;;
64075;SDS011;50327;51.328;12.324;2023-02-28T02:03:11;8.23;;;3.22;;
64075;SDS011;50327;51.328;12.324;2023-02-28T02:05:40;6.32;;;2.03;;
64075;SDS011;50327;51.328;12.324;2023-02-28T02:08:10;5.60;;;2.72;;
64075;SDS011;50327;51.328;12.324;2023-02-28T02:38:21;5.28;;;1.75;;
64075;SDS011;50327;51.328;12.324;2023-02-28T02:41:20;8.13;;;2.60;;
64075;SDS011;50327;51.328;12.324;2023-02-28T02:43:53;8.57;;;2.60;;
64075;SDS011;50327;51.328;12.324;2023-02-28T02:46:23;8.32;;;2.25;;
64075;SDS011;50327;51.328;12.324;2023-02-28T02:49:01;5.55;;;2.22;;
64075;SDS011;50327;51.328;12.324;2023-02-28T02:51:30;7.07;;;2.35;;
64075;SDS011;50327;51.328;12.324;2023-02-28T02:54:17;6.43;;;2.53;;
64075;SDS011;50327;51.328;12.324;2023-02-28T02:56:48;6.32;;;2.15;;
64075;SDS011;50327;51.328;12.324;2023-02-28T02:59:16;6.95;;;2.28;;
64075;SDS011;50327;51.328;12.324;2023-02-28T03:01:46;7.80;;;2.60;;
64075;SDS011;50327;51.328;12.324;2023-02-28T03:04:20;3.70;;;1.80;;
64075;SDS011;50327;51.328;12.324;2023-02-28T03:06:50;5.95;;;2.13;;
64075;SDS011;50327;51.328;12.324;2023-02-28T03:09:22;5.97;;;2.80;;
64075;SDS011;50327;51.328;12.324;2023-02-28T03:19:33;5.53;;;2.30;;
64075;SDS011;50327;51.328;12.324;2023-02-28T03:27:23;8.02;;;2.10;;
64075;SDS011;50327;51.328;12.324;2023-02-28T03:30:39;6.22;;;2.15;;
64075;SDS011;50327;51.328;12.324;2023-02-28T03:32:51;5.90;;;2.40;;
64075;SDS011;50327;51.328;12.324;2023-02-28T03:35:26;4.15;;;2.15;;
64075;SDS011;50327;51.328;12.324;2023-02-28T03:38:01;5.07;;;2.35;;
64075;SDS011;50327;51.328;12.324;2023-02-28T03:40:33;7.43;;;2.45;;
64075;SDS011;50327;51.328;12.324;2023-02-28T03:43:04;3.65;;;1.67;;
64075;SDS011;50327;51.328;12.324;2023-02-28T03:45:36;5.35;;;1.95;;
64075;SDS011;50327;51.328;12.324;2023-02-28T03:48:09;6.35;;;2.75;;
64075;SDS011;50327;51.328;12.324;2023-02-28T03:50:44;5.85;;;2.25;;
64075;SDS011;50327;51.328;12.324;2023-02-28T03:53:12;8.23;;;2.55;;
64075;SDS011;50327;51.328;12.324;2023-02-28T03:55:43;5.75;;;2.40;;
64075;SDS011;50327;51.328;12.324;2023-02-28T03:58:26;7.57;;;2.70;;
64075;SDS011;50327;51.328;12.324;2023-02-28T04:01:04;8.50;;;2.70;;
64075;SDS011;50327;51.328;12.324;2023-02-28T04:03:37;6.93;;;2.67;;
64075;SDS011;50327;51.328;12.324;2023-02-28T04:06:04;7.25;;;2.20;;
64075;SDS011;50327;51.328;12.324;2023-02-28T04:08:32;8.30;;;2.55;;
64075;SDS011;50327;51.328;12.324;2023-02-28T04:11:20;7.10;;;2.92;;
64075;SDS011;50327;51.328;12.324;2023-02-28T04:13:46;5.82;;;2.15;;
64075;SDS011;50327;51.328;12.324;2023-02-28T04:16:11;9.25;;;2.13;;
64075;SDS011;50327;51.328;12.324;2023-02-28T04:18:40;7.50;;;2.88;;
64075;SDS011;50327;51.328;12.324;2023-02-28T04:21:08;8.95;;;2.13;;
64075;SDS011;50327;51.328;12.324;2023-02-28T04:23:34;7.32;;;2.75;;
64075;SDS011;50327;51.328;12.324;2023-02-28T04:25:59;6.47;;;2.88;;
64075;SDS011;50327;51.328;12.324;2023-02-28T04:28:25;4.97;;;2.55;;
64075;SDS011;50327;51.328;12.324;2023-02-28T04:31:02;6.75;;;2.40;;
64075;SDS011;50327;51.328;12.324;2023-02-28T04:33:29;6.97;;;3.28;;
64075;SDS011;50327;51.328;12.324;2023-02-28T04:36:03;6.80;;;2.67;;
64075;SDS011;50327;51.328;12.324;2023-02-28T04:38:34;5.05;;;2.15;;
64075;SDS011;50327;51.328;12.324;2023-02-28T04:41:01;11.15;;;3.08;;
64075;SDS011;50327;51.328;12.324;2023-02-28T04:43:28;6.43;;;3.00;;
64075;SDS011;50327;51.328;12.324;2023-02-28T04:45:54;9.93;;;2.85;;
64075;SDS011;50327;51.328;12.324;2023-02-28T04:48:22;5.78;;;2.85;;
64075;SDS011;50327;51.328;12.324;2023-02-28T04:50:52;6.20;;;2.35;;
64075;SDS011;50327;51.328;12.324;2023-02-28T04:53:18;7.25;;;2.45;;
64075;SDS011;50327;51.328;12.324;2023-02-28T04:55:44;5.80;;;2.22;;
64075;SDS011;50327;51.328;12.324;2023-02-28T04:58:10;7.38;;;2.97;;
64075;SDS011;50327;51.328;12.324;2023-02-28T05:00:36;7.10;;;2.10;;
64075;SDS011;50327;51.328;12.324;2023-02-28T05:03:02;6.60;;;2.15;;
64075;SDS011;50327;51.328;12.324;2023-02-28T05:05:27;12.43;;;2.50;;
64075;SDS011;50327;51.328;12.324;2023-02-28T05:07:53;6.10;;;2.95;;
64075;SDS011;50327;51.328;12.324;2023-02-28T05:10:20;5.65;;;2.60;;
64075;SDS011;50327;51.328;12.324;2023-02-28T05:12:46;6.28;;;2.45;;
64075;SDS011;50327;51.328;12.324;2023-02-28T05:15:13;7.50;;;2.28;;
64075;SDS011;50327;51.328;12.324;2023-02-28T05:17:40;9.07;;;2.97;;
64075;SDS011;50327;51.328;12.324;2023-02-28T05:20:06;6.68;;;2.58;;
64075;SDS011;50327;51.328;12.324;2023-02-28T05:22:33;4.05;;;2.17;;
64075;SDS011;50327;51.328;12.324;2023-02-28T05:24:59;7.40;;;2.60;;
64075;SDS011;50327;51.328;12.324;2023-02-28T05:27:24;5.03;;;2.20;;
64075;SDS011;50327;51.328;12.324;2023-02-28T05:29:50;14.02;;;2.88;;
64075;SDS011;50327;51.328;12.324;2023-02-28T05:32:15;6.90;;;2.90;;
64075;SDS011;50327;51.328;12.324;2023-02-28T05:34:40;11.63;;;2.72;;
64075;SDS011;50327;51.328;12.324;2023-02-28T05:37:11;5.97;;;2.08;;
64075;SDS011;50327;51.328;12.324;2023-02-28T05:39:37;5.57;;;2.47;;
64075;SDS011;50327;51.328;12.324;2023-02-28T05:42:03;9.35;;;2.38;;
64075;SDS011;50327;51.328;12.324;2023-02-28T05:44:29;4.20;;;2.17;;
64075;SDS011;50327;51.328;12.324;2023-02-28T05:46:55;17.10;;;2.60;;
64075;SDS011;50327;51.328;12.324;2023-02-28T05:49:20;9.93;;;2.65;;
64075;SDS011;50327;51.328;12.324;2023-02-28T05:51:46;6.05;;;2.05;;
64075;SDS011;50327;51.328;12.324;2023-02-28T05:54:11;13.90;;;3.10;;
64075;SDS011;50327;51.328;12.324;2023-02-28T05:56:36;7.15;;;3.45;;
64075;SDS011;50327;51.328;12.324;2023-02-28T05:59:06;9.20;;;2.72;;
64075;SDS011;50327;51.328;12.324;2023-02-28T06:01:36;15.57;;;2.50;;
64075;SDS011;50327;51.328;12.324;2023-02-28T06:04:04;9.02;;;2.72;;
64075;SDS011;50327;51.328;12.324;2023-02-28T06:06:30;5.30;;;2.40;;
64075;SDS011;50327;51.328;12.324;2023-02-28T06:08:56;6.53;;;2.83;;
64075;SDS011;50327;51.328;12.324;2023-02-28T06:11:21;7.80;;;2.65;;
64075;SDS011;50327;51.328;12.324;2023-02-28T06:13:52;14.23;;;3.55;;
64075;SDS011;50327;51.328;12.324;2023-02-28T06:16:19;8.02;;;2.78;;
64075;SDS011;50327;51.328;12.324;2023-02-28T06:18:44;5.85;;;2.45;;
64075;SDS011;50327;51.328;12.324;2023-02-28T06:21:10;5.72;;;2.72;;
64075;SDS011;50327;51.328;12.324;2023-02-28T06:23:37;7.43;;;2.95;;
64075;SDS011;50327;51.328;12.324;2023-02-28T06:26:03;8.52;;;3.85;;
64075;SDS011;50327;51.328;12.324;2023-02-28T06:28:28;8.48;;;3.47;;
64075;SDS011;50327;51.328;12.324;2023-02-28T06:30:54;6.43;;;3.28;;
64075;SDS011;50327;51.328;12.324;2023-02-28T06:33:19;14.95;;;4.65;;
64075;SDS011;50327;51.328;12.324;2023-02-28T06:35:46;7.00;;;3.50;;
64075;SDS011;50327;51.328;12.324;2023-02-28T06:38:12;9.52;;;4.68;;
64075;SDS011;50327;51.328;12.324;2023-02-28T06:40:37;14.00;;;6.03;;
64075;SDS011;50327;51.328;12.324;2023-02-28T06:43:03;6.38;;;2.95;;
64075;SDS011;50327;51.328;12.324;2023-02-28T06:45:28;6.10;;;2.75;;
64075;SDS011;50327;51.328;12.324;2023-02-28T06:47:54;14.25;;;3.35;;
64075;SDS011;50327;51.328;12.324;2023-02-28T06:50:20;9.18;;;2.97;;
64075;SDS011;50327;51.328;12.324;2023-02-28T06:52:45;6.60;;;2.92;;
64075;SDS011;50327;51.328;12.324;2023-02-28T06:55:11;7.90;;;3.10;;
64075;SDS011;50327;51.328;12.324;2023-02-28T06:57:37;9.82;;;3.42;;
64075;SDS011;50327;51.328;12.324;2023-02-28T07:00:05;14.32;;;3.72;;
64075;SDS011;50327;51.328;12.324;2023-02-28T07:02:33;8.93;;;3.95;;
64075;SDS011;50327;51.328;12.324;2023-02-28T07:04:59;12.18;;;3.65;;
64075;SDS011;50327;51.328;12.324;2023-02-28T07:07:24;12.25;;;3.78;;
64075;SDS011;50327;51.328;12.324;2023-02-28T07:09:50;14.38;;;3.60;;
64075;SDS011;50327;51.328;12.324;2023-02-28T07:12:15;7.75;;;3.75;;
64075;SDS011;50327;51.328;12.324;2023-02-28T07:14:41;7.63;;;3.33;;
64075;SDS011;50327;51.328;12.324;2023-02-28T07:17:07;9.52;;;3.25;;
64075;SDS011;50327;51.328;12.324;2023-02-28T07:19:37;11.77;;;3.80;;
64075;SDS011;50327;51.328;12.324;2023-02-28T07:22:03;6.38;;;2.55;;
64075;SDS011;50327;51.328;12.324;2023-02-28T07:24:29;6.78;;;2.72;;
64075;SDS011;50327;51.328;12.324;2023-02-28T07:26:55;11.32;;;3.00;;
64075;SDS011;50327;51.328;12.324;2023-02-28T07:29:20;8.63;;;3.72;;
64075;SDS011;50327;51.328;12.324;2023-02-28T07:31:46;5.93;;;2.63;;
64075;SDS011;50327;51.328;12.324;2023-02-28T07:34:11;9.40;;;3.17;;
64075;SDS011;50327;51.328;12.324;2023-02-28T07:36:37;7.55;;;3.03;;
64075;SDS011;50327;51.328;12.324;2023-02-28T07:39:03;11.27;;;3.40;;
64075;SDS011;50327;51.328;12.324;2023-02-28T07:41:29;12.52;;;3.63;;
64075;SDS011;50327;51.328;12.324;2023-02-28T07:43:55;8.60;;;3.35;;
64075;SDS011;50327;51.328;12.324;2023-02-28T07:46:22;9.50;;;3.97;;
64075;SDS011;50327;51.328;12.324;2023-02-28T07:48:47;10.80;;;3.70;;
64075;SDS011;50327;51.328;12.324;2023-02-28T07:51:13;7.43;;;3.00;;
64075;SDS011;50327;51.328;12.324;2023-02-28T07:53:38;9.18;;;3.95;;
64075;SDS011;50327;51.328;12.324;2023-02-28T07:56:04;16.38;;;3.88;;
64075;SDS011;50327;51.328;12.324;2023-02-28T07:58:30;8.82;;;3.40;;
64075;SDS011;50327;51.328;12.324;2023-02-28T08:00:56;10.88;;;3.53;;
64075;SDS011;50327;51.328;12.324;2023-02-28T08:03:22;8.85;;;3.70;;
64075;SDS011;50327;51.328;12.324;2023-02-28T08:05:49;11.95;;;4.03;;
64075;SDS011;50327;51.328;12.324;2023-02-28T08:08:15;13.80;;;4.28;;
64075;SDS011;50327;51.328;12.324;2023-02-28T08:10:40;6.78;;;2.90;;
64075;SDS011;50327;51.328;12.324;2023-02-28T08:13:06;12.60;;;3.83;;
64075;SDS011;50327;51.328;12.324;2023-02-28T08:15:35;20.75;;;3.85;;
64075;SDS011;50327;51.328;12.324;2023-02-28T08:18:01;8.68;;;3.35;;
64075;SDS011;50327;51.328;12.324;2023-02-28T08:20:27;7.65;;;3.13;;
64075;SDS011;50327;51.328;12.324;2023-02-28T08:22:52;7.78;;;2.88;;
64075;SDS011;50327;51.328;12.324;2023-02-28T08:25:18;8.07;;;3.55;;
64075;SDS011;50327;51.328;12.324;2023-02-28T08:27:43;8.05;;;2.80;;
64075;SDS011;50327;51.328;12.324;2023-02-28T08:30:12;9.98;;;3.47;;
64075;SDS011;50327;51.328;12.324;2023-02-28T08:32:39;25.60;;;7.28;;
64075;SDS011;50327;51.328;12.324;2023-02-28T08:35:05;11.10;;;4.05;;
64075;SDS011;50327;51.328;12.324;2023-02-28T08:37:30;12.18;;;4.00;;
64075;SDS011;50327;51.328;12.324;2023-02-28T08:39:56;17.73;;;5.35;;
64075;SDS011;50327;51.328;12.324;2023-02-28T08:42:21;13.38;;;3.67;;
64075;SDS011;50327;51.328;12.324;2023-02-28T08:44:47;14.23;;;4.72;;
64075;SDS011;50327;51.328;12.324;2023-02-28T08:47:12;7.68;;;2.67;;
64075;SDS011;50327;51.328;12.324;2023-02-28T08:49:38;20.98;;;5.70;;
64075;SDS011;50327;51.328;12.324;2023-02-28T08:52:03;9.70;;;3.10;;
64075;SDS011;50327;51.328;12.324;2023-02-28T08:54:29;15.73;;;4.68;;
64075;SDS011;50327;51.328;12.324;2023-02-28T08:56:56;7.47;;;2.00;;
64075;SDS011;50327;51.328;12.324;2023-02-28T08:59:21;8.93;;;2.95;;
64075;SDS011;50327;51.328;12.324;2023-02-28T09:01:47;6.15;;;2.70;;
64075;SDS011;50327;51.328;12.324;2023-02-28T09:04:13;9.07;;;2.88;;
64075;SDS011;50327;51.328;12.324;2023-02-28T09:06:38;7.82;;;2.85;;
64075;SDS011;50327;51.328;12.324;2023-02-28T09:09:04;8.23;;;3.40;;
64075;SDS011;50327;51.328;12.324;2023-02-28T09:11:31;11.65;;;4.28;;
64075;SDS011;50327;51.328;12.324;2023-02-28T09:13:57;6.03;;;2.55;;
64075;SDS011;50327;51.328;12.324;2023-02-28T09:16:25;11.40;;;3.30;;
64075;SDS011;50327;51.328;12.324;2023-02-28T09:18:50;11.43;;;3.08;;
64075;SDS011;50327;51.328;12.324;2023-02-28T09:21:16;8.52;;;2.60;;
64075;SDS011;50327;51.328;12.324;2023-02-28T09:23:44;5.70;;;2.22;;
64075;SDS011;50327;51.328;12.324;2023-02-28T09:26:14;6.70;;;2.97;;
64075;SDS011;50327;51.328;12.324;2023-02-28T09:28:50;20.02;;;4.82;;
64075;SDS011;50327;51.328;12.324;2023-02-28T09:31:17;6.70;;;2.85;;
64075;SDS011;50327;51.328;12.324;2023-02-28T09:33:50;6.00;;;2.53;;
64075;SDS011;50327;51.328;12.324;2023-02-28T09:36:18;10.23;;;3.05;;
64075;SDS011;50327;51.328;12.324;2023-02-28T09:38:43;8.75;;;2.88;;
64075;SDS011;50327;51.328;12.324;2023-02-28T09:41:15;9.68;;;2.92;;
64075;SDS011;50327;51.328;12.324;2023-02-28T09:43:46;6.22;;;2.33;;
64075;SDS011;50327;51.328;12.324;2023-02-28T09:48:58;8.57;;;3.28;;
64075;SDS011;50327;51.328;12.324;2023-02-28T09:51:32;9.75;;;2.92;;
64075;SDS011;50327;51.328;12.324;2023-02-28T09:53:59;11.82;;;2.70;;
64075;SDS011;50327;51.328;12.324;2023-02-28T09:56:27;8.65;;;2.50;;
64075;SDS011;50327;51.328;12.324;2023-02-28T10:01:41;7.28;;;2.45;;
64075;SDS011;50327;51.328;12.324;2023-02-28T10:06:51;7.80;;;2.63;;
64075;SDS011;50327;51.328;12.324;2023-02-28T10:09:22;9.65;;;2.92;;
64075;SDS011;50327;51.328;12.324;2023-02-28T10:11:51;5.85;;;2.33;;
64075;SDS011;50327;51.328;12.324;2023-02-28T10:17:02;4.85;;;2.63;;
64075;SDS011;50327;51.328;12.324;2023-02-28T10:22:12;6.32;;;2.85;;
64075;SDS011;50327;51.328;12.324;2023-02-28T10:24:44;9.40;;;2.83;;
64075;SDS011;50327;51.328;12.324;2023-02-28T10:29:49;10.20;;;3.03;;
64075;SDS011;50327;51.328;12.324;2023-02-28T10:32:25;11.18;;;2.80;;
64075;SDS011;50327;51.328;12.324;2023-02-28T10:35:06;6.70;;;2.75;;
64075;SDS011;50327;51.328;12.324;2023-02-28T10:37:38;5.95;;;2.83;;
64075;SDS011;50327;51.328;12.324;2023-02-28T10:40:05;15.70;;;2.88;;
64075;SDS011;50327;51.328;12.324;2023-02-28T10:43:02;9.75;;;3.25;;
64075;SDS011;50327;51.328;12.324;2023-02-28T10:48:01;10.90;;;3.45;;
64075;SDS011;50327;51.328;12.324;2023-02-28T11:01:42;7.50;;;2.83;;
64075;SDS011;50327;51.328;12.324;2023-02-28T11:06:44;10.20;;;3.05;;
64075;SDS011;50327;51.328;12.324;2023-02-28T11:09:22;10.40;;;2.95;;
64075;SDS011;50327;51.328;12.324;2023-02-28T11:11:54;9.00;;;2.80;;
64075;SDS011;50327;51.328;12.324;2023-02-28T11:14:26;11.43;;;4.75;;
64075;SDS011;50327;51.328;12.324;2023-02-28T11:16:55;12.80;;;3.75;;
64075;SDS011;50327;51.328;12.324;2023-02-28T11:19:27;6.35;;;2.95;;
64075;SDS011;50327;51.328;12.324;2023-02-28T11:22:03;9.32;;;3.67;;
64075;SDS011;50327;51.328;12.324;2023-02-28T11:24:31;13.80;;;2.92;;
64075;SDS011;50327;51.328;12.324;2023-02-28T11:27:00;11.35;;;3.15;;
64075;SDS011;50327;51.328;12.324;2023-02-28T11:29:27;8.50;;;3.60;;
64075;SDS011;50327;51.328;12.324;2023-02-28T11:34:43;7.93;;;3.17;;
64075;SDS011;50327;51.328;12.324;2023-02-28T11:37:15;7.55;;;3.67;;
64075;SDS011;50327;51.328;12.324;2023-02-28T11:39:43;12.30;;;3.30;;
64075;SDS011;50327;51.328;12.324;2023-02-28T11:47:28;10.52;;;3.45;;
64075;SDS011;50327;51.328;12.324;2023-02-28T11:55:54;8.02;;;3.30;;
64075;SDS011;50327;51.328;12.324;2023-02-28T12:01:18;15.48;;;4.00;;
64075;SDS011;50327;51.328;12.324;2023-02-28T12:06:31;9.68;;;3.88;;
64075;SDS011;50327;51.328;12.324;2023-02-28T12:11:45;8.88;;;3.30;;
64075;SDS011;50327;51.328;12.324;2023-02-28T12:17:22;8.15;;;3.33;;
64075;SDS011;50327;51.328;12.324;2023-02-28T12:20:05;11.88;;;4.47;;
64075;SDS011;50327;51.328;12.324;2023-02-28T12:25:33;10.82;;;4.38;;
64075;SDS011;50327;51.328;12.324;2023-02-28T12:28:10;8.27;;;4.20;;
64075;SDS011;50327;51.328;12.324;2023-02-28T12:33:35;8.30;;;4.40;;
64075;SDS011;50327;51.328;12.324;2023-02-28T12:36:09;12.55;;;4.03;;
64075;SDS011;50327;51.328;12.324;2023-02-28T12:38:47;13.27;;;4.45;;
64075;SDS011;50327;51.328;12.324;2023-02-28T12:41:19;12.73;;;3.90;;
64075;SDS011;50327;51.328;12.324;2023-02-28T12:44:00;9.05;;;3.78;;
64075;SDS011;50327;51.328;12.324;2023-02-28T12:46:41;10.48;;;3.70;;
64075;SDS011;50327;51.328;12.324;2023-02-28T12:49:22;9.40;;;4.10;;
64075;SDS011;50327;51.328;12.324;2023-02-28T12:51:52;10.43;;;4.35;;
64075;SDS011;50327;51.328;12.324;2023-02-28T12:54:20;10.38;;;4.07;;
64075;SDS011;50327;51.328;12.324;2023-02-28T12:57:04;9.65;;;3.92;;
64075;SDS011;50327;51.328;12.324;2023-02-28T12:59:54;13.27;;;5.13;;
64075;SDS011;50327;51.328;12.324;2023-02-28T13:05:43;12.45;;;4.85;;
64075;SDS011;50327;51.328;12.324;2023-02-28T13:08:27;13.68;;;4.97;;
64075;SDS011;50327;51.328;12.324;2023-02-28T13:11:27;10.30;;;4.22;;
64075;SDS011;50327;51.328;12.324;2023-02-28T13:13:59;15.13;;;5.20;;
64075;SDS011;50327;51.328;12.324;2023-02-28T13:19:16;14.25;;;4.93;;
64075;SDS011;50327;51.328;12.324;2023-02-28T13:21:44;10.38;;;4.80;;
64075;SDS011;50327;51.328;12.324;2023-02-28T13:24:10;17.48;;;5.38;;
64075;SDS011;50327;51.328;12.324;2023-02-28T13:29:03;11.98;;;4.20;;
64075;SDS011;50327;51.328;12.324;2023-02-28T13:34:31;8.27;;;4.57;;
64075;SDS011;50327;51.328;12.324;2023-02-28T13:39:46;10.57;;;4.68;;
64075;SDS011;50327;51.328;12.324;2023-02-28T13:50:43;11.18;;;4.95;;
64075;SDS011;50327;51.328;12.324;2023-02-28T13:58:25;10.48;;;4.57;;
64075;SDS011;50327;51.328;12.324;2023-02-28T14:01:14;12.70;;;5.45;;
64075;SDS011;50327;51.328;12.324;2023-02-28T14:04:12;12.63;;;4.55;;
64075;SDS011;50327;51.328;12.324;2023-02-28T14:06:34;9.82;;;4.55;;
64075;SDS011;50327;51.328;12.324;2023-02-28T14:11:38;10.27;;;4.20;;
64075;SDS011;50327;51.328;12.324;2023-02-28T14:14:05;9.47;;;4.97;;
64075;SDS011;50327;51.328;12.324;2023-02-28T14:19:12;17.58;;;5.50;;
64075;SDS011;50327;51.328;12.324;2023-02-28T14:21:47;10.38;;;5.25;;
64075;SDS011;50327;51.328;12.324;2023-02-28T14:32:40;12.93;;;5.28;;
64075;SDS011;50327;51.328;12.324;2023-02-28T14:37:50;11.63;;;4.60;;
64075;SDS011;50327;51.328;12.324;2023-02-28T14:40:37;11.95;;;5.57;;
64075;SDS011;50327;51.328;12.324;2023-02-28T14:43:04;10.00;;;4.80;;
64075;SDS011;50327;51.328;12.324;2023-02-28T14:45:31;7.85;;;4.47;;
64075;SDS011;50327;51.328;12.324;2023-02-28T14:48:01;11.80;;;4.80;;
64075;SDS011;50327;51.328;12.324;2023-02-28T14:50:29;10.45;;;4.57;;
64075;SDS011;50327;51.328;12.324;2023-02-28T14:52:57;11.07;;;5.05;;
64075;SDS011;50327;51.328;12.324;2023-02-28T14:55:25;10.10;;;4.95;;
64075;SDS011;50327;51.328;12.324;2023-02-28T14:57:56;15.77;;;5.50;;
64075;SDS011;50327;51.328;12.324;2023-02-28T15:00:32;14.23;;;5.25;;
64075;SDS011;50327;51.328;12.324;2023-02-28T15:03:00;10.40;;;4.78;;
64075;SDS011;50327;51.328;12.324;2023-02-28T15:05:42;11.18;;;5.78;;
64075;SDS011;50327;51.328;12.324;2023-02-28T15:08:11;11.05;;;5.80;;
64075;SDS011;50327;51.328;12.324;2023-02-28T15:10:39;11.68;;;5.10;;
64075;SDS011;50327;51.328;12.324;2023-02-28T15:13:18;9.38;;;5.07;;
64075;SDS011;50327;51.328;12.324;2023-02-28T15:15:57;9.95;;;4.95;;
64075;SDS011;50327;51.328;12.324;2023-02-28T15:18:29;17.83;;;6.30;;
64075;SDS011;50327;51.328;12.324;2023-02-28T15:21:02;8.25;;;4.25;;
64075;SDS011;50327;51.328;12.324;2023-02-28T15:23:31;11.05;;;5.35;;
64075;SDS011;50327;51.328;12.324;2023-02-28T15:26:00;17.75;;;5.97;;
64075;SDS011;50327;51.328;12.324;2023-02-28T15:28:25;8.70;;;4.25;;
64075;SDS011;50327;51.328;12.324;2023-02-28T15:30:57;13.93;;;5.70;;
64075;SDS011;50327;51.328;12.324;2023-02-28T15:33:28;12.65;;;5.45;;
64075;SDS011;50327;51.328;12.324;2023-02-28T15:36:05;11.80;;;5.32;;
64075;SDS011;50327;51.328;12.324;2023-02-28T15:38:36;12.88;;;5.38;;
64075;SDS011;50327;51.328;12.324;2023-02-28T15:41:02;11.55;;;5.30;;
64075;SDS011;50327;51.328;12.324;2023-02-28T15:43:34;8.52;;;5.00;;
64075;SDS011;50327;51.328;12.324;2023-02-28T15:46:08;9.93;;;4.93;;
64075;SDS011;50327;51.328;12.324;2023-02-28T15:48:47;13.63;;;5.68;;
64075;SDS011;50327;51.328;12.324;2023-02-28T15:51:20;18.20;;;6.63;;
64075;SDS011;50327;51.328;12.324;2023-02-28T15:56:24;12.63;;;5.78;;
64075;SDS011;50327;51.328;12.324;2023-02-28T15:58:58;18.38;;;5.75;;
64075;SDS011;50327;51.328;12.324;2023-02-28T16:01:27;13.88;;;6.03;;
64075;SDS011;50327;51.328;12.324;2023-02-28T16:03:56;11.10;;;5.45;;
64075;SDS011;50327;51.328;12.324;2023-02-28T16:06:26;10.48;;;5.57;;
64075;SDS011;50327;51.328;12.324;2023-02-28T16:08:57;9.10;;;5.20;;
64075;SDS011;50327;51.328;12.324;2023-02-28T16:11:22;9.57;;;5.32;;
64075;SDS011;50327;51.328;12.324;2023-02-28T16:13:48;12.00;;;6.10;;
64075;SDS011;50327;51.328;12.324;2023-02-28T16:16:16;11.32;;;6.00;;
64075;SDS011;50327;51.328;12.324;2023-02-28T16:18:43;11.88;;;6.20;;
64075;SDS011;50327;51.328;12.324;2023-02-28T16:21:08;11.50;;;5.15;;
64075;SDS011;50327;51.328;12.324;2023-02-28T16:23:33;11.23;;;5.57;;
64075;SDS011;50327;51.328;12.324;2023-02-28T16:25:59;10.60;;;6.22;;
64075;SDS011;50327;51.328;12.324;2023-02-28T16:28:26;11.25;;;5.80;;
64075;SDS011;50327;51.328;12.324;2023-02-28T16:30:57;19.25;;;8.60;;
64075;SDS011;50327;51.328;12.324;2023-02-28T16:33:24;11.23;;;5.93;;
64075;SDS011;50327;51.328;12.324;2023-02-28T16:35:50;13.68;;;5.88;;
64075;SDS011;50327;51.328;12.324;2023-02-28T16:38:15;23.17;;;8.55;;
64075;SDS011;50327;51.328;12.324;2023-02-28T16:40:40;16.33;;;7.00;;
64075;SDS011;50327;51.328;12.324;2023-02-28T16:43:16;32.35;;;9.90;;
64075;SDS011;50327;51.328;12.324;2023-02-28T16:45:44;21.45;;;8.77;;
64075;SDS011;50327;51.328;12.324;2023-02-28T16:48:14;32.33;;;10.23;;
64075;SDS011;50327;51.328;12.324;2023-02-28T16:50:41;28.52;;;7.88;;
64075;SDS011;50327;51.328;12.324;2023-02-28T16:53:07;18.88;;;6.55;;
64075;SDS011;50327;51.328;12.324;2023-02-28T16:55:32;20.20;;;8.25;;
64075;SDS011;50327;51.328;12.324;2023-02-28T16:58:00;28.25;;;9.85;;
64075;SDS011;50327;51.328;12.324;2023-02-28T17:00:27;17.63;;;8.23;;
64075;SDS011;50327;51.328;12.324;2023-02-28T17:02:54;21.85;;;10.15;;
64075;SDS011;50327;51.328;12.324;2023-02-28T17:05:21;19.92;;;9.93;;
64075;SDS011;50327;51.328;12.324;2023-02-28T17:07:47;18.23;;;7.70;;
64075;SDS011;50327;51.328;12.324;2023-02-28T17:10:17;22.88;;;7.47;;